createdAt,value
2019-04-20T00:01:29.419Z,52.80
2019-04-20T00:03:57.051Z,52.60
2019-04-20T00:06:27.303Z,52.20
2019-04-20T00:09:08.766Z,52.30
2019-04-20T00:11:45.963Z,52.30
2019-04-20T00:14:16.167Z,52.20
2019-04-20T00:16:42.138Z,52.40
2019-04-20T00:19:15.340Z,52.20
2019-04-20T00:21:57.524Z,52.20
2019-04-20T00:24:37.158Z,52.30
2019-04-20T00:27:32.759Z,52.20
2019-04-20T00:30:01.563Z,52.20
2019-04-20T00:32:29.438Z,52.10
2019-04-20T00:34:50.667Z,52.10
2019-04-20T00:37:23.354Z,52.20
2019-04-20T00:39:57.432Z,52.20
2019-04-20T00:42:38.001Z,52.50
2019-04-20T00:45:08.489Z,52.70
2019-04-20T00:47:48.909Z,52.60
2019-04-20T00:50:29.851Z,52.80
2019-04-20T00:52:55.597Z,53.10
2019-04-20T00:55:17.018Z,53.30
2019-04-20T00:57:54.835Z,53.20
2019-04-20T01:00:36.900Z,53.00
2019-04-20T01:03:09.569Z,53.20
2019-04-20T01:05:58.245Z,53.10
2019-04-20T01:08:21.331Z,53.30
2019-04-20T01:10:55.741Z,53.30
2019-04-20T01:13:27.200Z,53.50
2019-04-20T01:16:06.321Z,53.20
2019-04-20T01:18:32.127Z,53.10
2019-04-20T01:21:06.737Z,53.00
2019-04-20T01:23:42.916Z,53.20
2019-04-20T01:26:15.561Z,53.30
2019-04-20T01:28:54.158Z,53.70
2019-04-20T01:31:24.162Z,54.10
2019-04-20T01:33:58.780Z,54.20
2019-04-20T01:36:43.013Z,54.10
2019-04-20T01:39:07.552Z,54.00
2019-04-20T01:41:28.624Z,53.90
2019-04-20T01:44:00.502Z,54.20
2019-04-20T01:46:33.741Z,54.00
2019-04-20T01:49:11.513Z,53.80
2019-04-20T01:51:46.985Z,53.50
2019-04-20T01:54:29.797Z,53.80
2019-04-20T01:57:04.159Z,54.00
2019-04-20T01:59:52.076Z,53.80
2019-04-20T02:02:29.559Z,54.00
2019-04-20T02:05:13.862Z,54.10
2019-04-20T02:07:43.766Z,54.90
2019-04-20T02:10:14.839Z,54.40
2019-04-20T02:12:51.375Z,54.70
2019-04-20T02:15:29.319Z,54.60
2019-04-20T02:18:04.781Z,54.30
2019-04-20T02:20:43.907Z,54.20
2019-04-20T02:23:12.342Z,54.00
2019-04-20T02:25:31.143Z,54.00
2019-04-20T02:28:23.132Z,53.90
2019-04-20T02:31:14.809Z,54.00
2019-04-20T02:36:27.591Z,53.90
2019-04-20T02:39:21.080Z,54.00
2019-04-20T02:41:44.816Z,54.00
2019-04-20T02:44:31.907Z,54.00
2019-04-20T02:46:49.503Z,54.00
2019-04-20T02:49:34.142Z,54.10
2019-04-20T02:51:52.690Z,54.00
2019-04-20T02:59:54.049Z,54.30
2019-04-20T03:01:52.168Z,54.60
2019-04-20T03:04:20.356Z,54.60
2019-04-20T03:06:58.397Z,54.50
2019-04-20T03:09:36.908Z,54.30
2019-04-20T03:12:08.154Z,54.30
2019-04-20T03:14:34.891Z,54.30
2019-04-20T03:17:17.725Z,54.40
2019-04-20T03:19:41.168Z,54.30
2019-04-20T03:22:24.632Z,54.30
2019-04-20T03:24:54.444Z,54.40
2019-04-20T03:27:37.200Z,54.50
2019-04-20T03:31:15.726Z,54.60
2019-04-20T03:35:44.949Z,54.90
2019-04-20T03:38:15.271Z,54.20
2019-04-20T03:40:40.167Z,53.90
2019-04-20T03:42:59.550Z,53.80
2019-04-20T03:45:39.568Z,53.70
2019-04-20T03:48:16.023Z,53.80
2019-04-20T03:50:58.458Z,53.70
2019-04-20T03:53:29.877Z,53.80
2019-04-20T03:56:11.726Z,53.80
2019-04-20T03:58:47.311Z,53.80
2019-04-20T04:01:55.586Z,53.70
2019-04-20T04:04:37.175Z,53.60
2019-04-20T04:06:50.917Z,53.70
2019-04-20T04:09:28.661Z,53.80
2019-04-20T04:12:03.789Z,53.80
2019-04-20T04:14:24.024Z,53.80
2019-04-20T04:16:57.931Z,53.60
2019-04-20T04:19:31.788Z,53.60
2019-04-20T04:22:15.131Z,53.50
2019-04-20T04:24:45.134Z,53.80
2019-04-20T04:27:30.849Z,54.00
2019-04-20T04:29:58.310Z,54.10
2019-04-20T04:33:03.115Z,54.30
2019-04-20T04:35:03.095Z,54.20
2019-04-20T04:37:36.447Z,54.10
2019-04-20T04:40:20.965Z,54.30
2019-04-20T04:42:46.511Z,54.30
2019-04-20T04:45:04.910Z,54.30
2019-04-20T04:47:32.654Z,54.50
2019-04-20T04:50:11.630Z,54.20
2019-04-20T04:52:45.359Z,54.40
2019-04-20T04:55:23.748Z,54.40
2019-04-20T04:57:45.361Z,54.30
2019-04-20T05:00:25.565Z,54.40
2019-04-20T05:02:56.123Z,54.40
2019-04-20T05:05:54.601Z,54.10
2019-04-20T05:08:18.779Z,54.00
2019-04-20T05:10:43.715Z,53.60
2019-04-20T05:13:15.755Z,53.40
2019-04-20T05:16:01.326Z,53.10
2019-04-20T05:18:45.000Z,52.90
2019-04-20T05:21:26.045Z,53.00
2019-04-20T05:24:08.528Z,52.90
2019-04-20T05:26:55.669Z,52.90
2019-04-20T05:29:14.478Z,52.70
2019-04-20T05:31:48.630Z,52.70
2019-04-20T05:34:38.769Z,52.70
2019-04-20T05:37:18.025Z,52.50
2019-04-20T05:39:41.216Z,52.40
2019-04-20T05:42:19.151Z,52.40
2019-04-20T05:44:49.839Z,52.40
2019-04-20T05:47:21.426Z,52.50
2019-04-20T05:49:49.981Z,52.50
2019-04-20T05:52:40.222Z,52.50
2019-04-20T05:55:02.445Z,52.40
2019-04-20T05:57:40.165Z,52.30
2019-04-20T06:00:08.120Z,52.10
2019-04-20T06:02:46.541Z,52.10
2019-04-20T06:05:17.835Z,52.00
2019-04-20T06:07:48.823Z,51.80
2019-04-20T06:10:27.548Z,51.80
2019-04-20T06:12:54.169Z,51.50
2019-04-20T06:15:53.884Z,51.90
2019-04-20T06:18:26.955Z,51.60
2019-04-20T06:21:15.801Z,51.60
2019-04-20T06:23:53.195Z,51.70
2019-04-20T06:28:46.352Z,52.20
2019-04-20T06:31:42.153Z,51.70
2019-04-20T06:37:09.941Z,52.00
2019-04-20T06:40:29.361Z,52.00
2019-04-20T06:42:16.796Z,52.20
2019-04-20T06:45:02.209Z,51.50
2019-04-20T06:47:15.812Z,51.20
2019-04-20T06:49:42.207Z,51.80
2019-04-20T06:52:27.666Z,52.50
2019-04-20T06:55:08.683Z,51.10
2019-04-20T06:57:44.998Z,52.20
2019-04-20T07:00:35.124Z,52.20
2019-04-20T07:03:05.753Z,52.90
2019-04-20T07:05:28.648Z,53.10
2019-04-20T07:08:16.846Z,53.60
2019-04-20T07:10:37.696Z,53.90
2019-04-20T07:13:02.660Z,54.00
2019-04-20T07:15:41.189Z,54.20
2019-04-20T07:18:29.830Z,53.50
2019-04-20T07:21:27.108Z,52.30
2019-04-20T07:23:47.914Z,51.30
2019-04-20T07:26:26.815Z,52.30
2019-04-20T07:28:54.464Z,53.20
2019-04-20T07:31:24.635Z,53.70
2019-04-20T07:33:56.829Z,53.70
2019-04-20T07:36:32.282Z,53.80
2019-04-20T07:39:08.941Z,53.50
2019-04-20T07:41:42.948Z,53.40
2019-04-20T07:44:12.639Z,53.80
2019-04-20T07:46:59.841Z,54.50
2019-04-20T07:49:15.988Z,54.60
2019-04-20T07:51:33.886Z,54.40
2019-04-20T07:54:28.261Z,54.60
2019-04-20T07:56:53.680Z,54.60
2019-04-20T07:59:19.076Z,54.60
2019-04-20T08:02:32.423Z,54.80
2019-04-20T08:05:03.403Z,55.00
2019-04-20T08:07:24.806Z,54.70
2019-04-20T08:09:57.349Z,54.90
2019-04-20T08:12:55.732Z,55.10
2019-04-20T08:15:35.128Z,55.00
2019-04-20T08:18:01.233Z,55.20
2019-04-20T08:20:27.983Z,55.20
2019-04-20T08:23:17.529Z,55.10
2019-04-20T08:25:27.689Z,55.10
2019-04-20T08:28:24.996Z,55.20
2019-04-20T08:31:24.581Z,55.30
2019-04-20T08:34:13.644Z,55.30
2019-04-20T08:36:43.122Z,55.10
2019-04-20T08:41:53.474Z,55.20
2019-04-20T08:44:41.572Z,55.10
2019-04-20T08:47:07.308Z,55.40
2019-04-20T08:49:29.607Z,55.10
2019-04-20T08:52:20.970Z,55.10
2019-04-20T08:54:30.986Z,55.10
2019-04-20T08:56:52.230Z,55.10
2019-04-20T08:59:18.888Z,55.10
2019-04-20T09:01:51.102Z,55.20
2019-04-20T09:04:34.848Z,55.20
2019-04-20T09:07:05.555Z,55.30
2019-04-20T09:09:49.428Z,55.20
2019-04-20T09:12:19.125Z,55.20
2019-04-20T09:14:39.634Z,55.10
2019-04-20T09:17:40.953Z,55.00
2019-04-20T09:20:14.289Z,55.00
2019-04-20T09:23:16.682Z,55.10
2019-04-20T09:28:22.307Z,54.90
2019-04-20T09:31:02.580Z,55.20
2019-04-20T09:33:46.983Z,55.00
2019-04-20T09:36:23.946Z,55.20
2019-04-20T09:39:08.648Z,55.20
2019-04-20T09:41:59.262Z,55.10
2019-04-20T09:44:13.427Z,55.10
2019-04-20T09:46:50.015Z,55.20
2019-04-20T09:49:32.461Z,55.20
2019-04-20T09:52:07.895Z,55.40
2019-04-20T09:54:41.360Z,55.60
2019-04-20T09:57:22.912Z,55.30
2019-04-20T09:59:49.898Z,55.20
2019-04-20T10:02:10.276Z,55.30
2019-04-20T10:04:37.967Z,55.30
2019-04-20T10:07:15.787Z,55.50
2019-04-20T10:09:45.283Z,55.50
2019-04-20T10:12:17.511Z,55.60
2019-04-20T10:14:50.874Z,55.60
2019-04-20T10:17:23.557Z,55.70
2019-04-20T10:19:55.641Z,55.70
2019-04-20T10:22:26.910Z,55.70
2019-04-20T10:24:58.479Z,55.90
2019-04-20T10:27:30.730Z,55.90
2019-04-20T10:30:04.705Z,55.80
2019-04-20T10:32:40.353Z,55.70
2019-04-20T10:35:09.014Z,55.50
2019-04-20T10:37:47.231Z,55.60
2019-04-20T10:40:34.395Z,55.50
2019-04-20T10:42:53.043Z,55.40
2019-04-20T10:45:26.688Z,55.40
2019-04-20T10:47:59.043Z,55.60
2019-04-20T10:50:32.148Z,55.40
2019-04-20T10:53:03.874Z,55.50
2019-04-20T10:55:35.529Z,55.60
2019-04-20T10:58:07.325Z,55.50
2019-04-20T11:00:44.120Z,55.50
2019-04-20T11:03:17.624Z,55.40
2019-04-20T11:05:50.923Z,55.40
2019-04-20T11:08:22.456Z,55.40
2019-04-20T11:11:03.473Z,55.40
2019-04-20T11:13:27.659Z,55.40
2019-04-20T11:16:00.057Z,55.30
2019-04-20T11:18:31.639Z,55.00
2019-04-20T11:21:03.641Z,55.10
2019-04-20T11:23:36.658Z,55.00
2019-04-20T11:26:08.610Z,54.90
2019-04-20T11:28:40.054Z,54.90
2019-04-20T11:31:12.491Z,54.90
2019-04-20T11:33:43.856Z,55.00
2019-04-20T11:36:17.150Z,55.10
2019-04-20T11:38:49.067Z,55.00
2019-04-20T11:41:25.668Z,55.10
2019-04-20T11:43:53.519Z,55.20
2019-04-20T11:46:26.874Z,55.40
2019-04-20T11:48:59.369Z,55.40
2019-04-20T11:51:31.774Z,55.30
2019-04-20T11:54:04.203Z,55.40
2019-04-20T11:56:40.776Z,55.40
2019-04-20T11:59:09.803Z,55.30
2019-04-20T12:02:07.374Z,55.20
2019-04-20T12:04:59.895Z,55.20
2019-04-20T12:07:22.631Z,55.10
2019-04-20T12:09:58.519Z,55.20
2019-04-20T12:12:36.775Z,55.30
2019-04-20T12:15:01.243Z,55.20
2019-04-20T12:17:33.496Z,55.10
2019-04-20T12:20:07.987Z,55.00
2019-04-20T12:22:40.077Z,55.00
2019-04-20T12:25:12.070Z,55.20
2019-04-20T12:27:48.818Z,55.00
2019-04-20T12:30:17.506Z,54.90
2019-04-20T12:32:55.119Z,54.90
2019-04-20T12:35:22.745Z,54.70
2019-04-20T12:37:54.974Z,54.90
2019-04-20T12:40:28.037Z,54.90
2019-04-20T12:43:01.260Z,54.70
2019-04-20T12:45:33.542Z,54.70
2019-04-20T12:48:05.802Z,54.50
2019-04-20T12:50:37.430Z,54.50
2019-04-20T12:53:08.975Z,54.40
2019-04-20T12:55:40.910Z,54.40
2019-04-20T12:58:12.611Z,54.30
2019-04-20T13:00:49.749Z,54.50
2019-04-20T13:03:21.523Z,54.70
2019-04-20T13:05:54.295Z,54.60
2019-04-20T13:08:33.675Z,54.70
2019-04-20T13:11:13.048Z,54.70
2019-04-20T13:14:06.434Z,55.00
2019-04-20T13:16:38.836Z,55.20
2019-04-20T13:19:11.114Z,55.20
2019-04-20T13:21:42.993Z,55.10
2019-04-20T13:24:13.551Z,54.90
2019-04-20T13:26:44.876Z,55.00
2019-04-20T13:29:17.154Z,55.00
2019-04-20T13:31:52.005Z,54.70
2019-04-20T13:34:22.511Z,54.70
2019-04-20T13:36:52.633Z,54.60
2019-04-20T13:39:24.811Z,54.20
2019-04-20T13:42:08.082Z,54.30
2019-04-20T13:44:30.703Z,54.30
2019-04-20T13:47:03.111Z,54.40
2019-04-20T13:49:36.808Z,54.40
2019-04-20T13:52:08.757Z,53.70
2019-04-20T13:54:40.185Z,53.70
2019-04-20T13:57:13.534Z,54.20
2019-04-20T13:59:48.997Z,54.10
2019-04-20T14:02:29.274Z,53.90
2019-04-20T14:05:04.796Z,53.70
2019-04-20T14:07:37.579Z,53.60
2019-04-20T14:10:09.259Z,53.80
2019-04-20T14:12:53.619Z,53.60
2019-04-20T14:15:15.285Z,53.40
2019-04-20T14:17:46.965Z,53.30
2019-04-20T14:20:21.623Z,53.20
2019-04-20T14:22:52.463Z,53.20
2019-04-20T14:25:24.904Z,53.00
2019-04-20T14:27:57.295Z,53.10
2019-04-20T14:30:29.127Z,53.00
2019-04-20T14:33:01.008Z,52.80
2019-04-20T14:35:32.659Z,53.20
2019-04-20T14:38:04.174Z,53.10
2019-04-20T14:40:36.657Z,53.10
2019-04-20T14:43:08.945Z,53.20
2019-04-20T14:45:40.865Z,53.10
2019-04-20T14:48:13.694Z,53.10
2019-04-20T14:50:45.634Z,53.50
2019-04-20T14:53:17.689Z,53.20
2019-04-20T14:55:49.397Z,53.10
2019-04-20T14:58:40.201Z,52.90
2019-04-20T15:01:24.764Z,53.40
2019-04-20T15:04:02.879Z,53.20
2019-04-20T15:06:29.773Z,53.10
2019-04-20T15:09:03.057Z,53.10
2019-04-20T15:11:38.177Z,52.90
2019-04-20T15:14:11.053Z,53.00
2019-04-20T15:16:42.721Z,53.30
2019-04-20T15:19:39.131Z,53.50
2019-04-20T15:22:27.736Z,53.20
2019-04-20T15:24:59.957Z,52.60
2019-04-20T15:27:31.636Z,52.70
2019-04-20T15:30:04.519Z,52.80
2019-04-20T15:32:36.828Z,52.20
2019-04-20T15:35:09.093Z,52.20
2019-04-20T15:37:41.274Z,52.10
2019-04-20T15:40:14.994Z,52.20
2019-04-20T15:42:56.159Z,52.00
2019-04-20T15:45:19.401Z,52.10
2019-04-20T15:47:52.136Z,52.00
2019-04-20T15:50:23.962Z,51.60
2019-04-20T15:52:57.332Z,51.70
2019-04-20T15:55:33.568Z,52.00
2019-04-20T15:58:04.550Z,52.00
2019-04-20T16:00:34.353Z,51.60
2019-04-20T16:03:19.179Z,51.30
2019-04-20T16:05:56.744Z,51.10
2019-04-20T16:08:38.927Z,51.10
2019-04-20T16:11:11.231Z,51.50
2019-04-20T16:13:47.557Z,51.50
2019-04-20T16:16:16.245Z,51.50
2019-04-20T16:18:48.564Z,51.60
2019-04-20T16:21:24.559Z,51.50
2019-04-20T16:24:08.916Z,51.80
2019-04-20T16:26:59.784Z,51.80
2019-04-20T16:29:31.711Z,51.60
2019-04-20T16:32:04.647Z,50.90
2019-04-20T16:34:37.166Z,50.70
2019-04-20T16:37:10.574Z,51.10
2019-04-20T16:39:42.889Z,50.90
2019-04-20T16:42:16.193Z,50.10
2019-04-20T16:44:49.170Z,50.20
2019-04-20T16:47:21.893Z,49.80
2019-04-20T16:49:55.060Z,50.10
2019-04-20T16:52:26.840Z,49.90
2019-04-20T16:54:59.470Z,49.90
2019-04-20T16:57:31.881Z,50.00
2019-04-20T17:00:03.198Z,50.00
2019-04-20T17:02:36.212Z,50.40
2019-04-20T17:05:09.201Z,50.30
2019-04-20T17:07:44.763Z,50.40
2019-04-20T17:10:17.927Z,50.20
2019-04-20T17:12:51.357Z,50.20
2019-04-20T17:15:23.690Z,50.50
2019-04-20T17:17:58.576Z,50.60
2019-04-20T17:20:29.305Z,50.60
2019-04-20T17:23:03.858Z,50.50
2019-04-20T17:25:35.462Z,50.70
2019-04-20T17:28:35.336Z,50.60
2019-04-20T17:31:15.569Z,50.70
2019-04-20T17:34:04.654Z,50.50
2019-04-20T17:36:32.721Z,50.90
2019-04-20T17:39:06.746Z,50.70
2019-04-20T17:41:59.288Z,51.00
2019-04-20T17:44:24.707Z,51.10
2019-04-20T17:46:58.201Z,50.90
2019-04-20T17:49:29.389Z,50.90
2019-04-20T17:52:12.595Z,51.20
2019-04-20T17:54:37.847Z,51.10
2019-04-20T17:57:11.082Z,51.10
2019-04-20T17:59:53.288Z,51.10
2019-04-20T18:02:53.545Z,51.30
2019-04-20T18:05:41.747Z,51.30
2019-04-20T18:08:16.508Z,51.40
2019-04-20T18:10:37.850Z,51.40
2019-04-20T18:13:07.041Z,51.10
2019-04-20T18:15:45.392Z,49.80
2019-04-20T18:18:41.701Z,46.60
2019-04-20T18:21:14.911Z,43.70
2019-04-20T18:23:49.573Z,42.90
2019-04-20T18:26:37.855Z,44.10
2019-04-20T18:29:12.278Z,45.80
2019-04-20T18:31:33.578Z,47.20
2019-04-20T18:34:20.261Z,48.50
2019-04-20T18:36:50.782Z,49.30
2019-04-20T18:39:32.977Z,49.80
2019-04-20T18:42:06.471Z,50.20
2019-04-20T18:44:46.209Z,50.40
2019-04-20T18:47:23.865Z,50.50
2019-04-20T18:49:46.637Z,50.60
2019-04-20T18:52:09.524Z,50.70
2019-04-20T18:54:43.882Z,50.90
2019-04-20T18:57:18.021Z,51.10
2019-04-20T18:59:52.110Z,51.30
2019-04-20T19:02:26.541Z,51.60
2019-04-20T19:04:53.608Z,51.70
2019-04-20T19:07:25.814Z,51.70
2019-04-20T19:10:02.619Z,51.90
2019-04-20T19:12:42.492Z,52.00
2019-04-20T19:15:43.883Z,52.00
2019-04-20T19:18:18.340Z,52.00
2019-04-20T19:20:43.694Z,51.90
2019-04-20T19:23:16.765Z,52.00
2019-04-20T19:25:48.066Z,52.10
2019-04-20T19:28:25.696Z,52.10
2019-04-20T19:31:06.375Z,51.90
2019-04-20T19:33:42.188Z,51.90
2019-04-20T19:36:15.124Z,51.90
2019-04-20T19:38:45.611Z,52.10
2019-04-20T19:41:24.245Z,52.20
2019-04-20T19:43:49.019Z,52.10
2019-04-20T19:48:56.042Z,52.20
2019-04-20T19:51:43.488Z,52.20
2019-04-20T19:54:13.159Z,52.50
2019-04-20T19:56:42.583Z,52.50
2019-04-20T19:59:13.655Z,52.60
2019-04-20T20:01:33.392Z,52.90
2019-04-20T20:04:08.222Z,53.00
2019-04-20T20:06:46.038Z,53.20
2019-04-20T20:09:14.289Z,53.30
2019-04-20T20:11:46.768Z,53.20
2019-04-20T20:14:30.108Z,53.20
2019-04-20T20:17:08.441Z,53.20
2019-04-20T20:19:40.574Z,51.50
2019-04-20T20:22:10.380Z,50.00
2019-04-20T20:24:33.371Z,48.30
2019-04-20T20:27:12.781Z,45.40
2019-04-20T20:29:51.884Z,44.60
2019-04-20T20:32:21.375Z,44.20
2019-04-20T20:34:54.413Z,43.80
2019-04-20T20:37:25.358Z,44.10
2019-04-20T20:40:02.257Z,43.50
2019-04-20T20:42:34.077Z,43.70
2019-04-20T20:45:12.017Z,43.90
2019-04-20T20:47:49.072Z,44.40
2019-04-20T20:50:25.586Z,44.70
2019-04-20T20:52:49.645Z,45.20
2019-04-20T20:55:24.683Z,45.20
2019-04-20T20:58:01.163Z,45.40
2019-04-20T21:00:34.365Z,45.70
2019-04-20T21:03:01.731Z,45.10
2019-04-20T21:05:29.444Z,45.20
2019-04-20T21:08:01.659Z,44.90
2019-04-20T21:10:37.562Z,44.80
2019-04-20T21:13:10.261Z,45.20
2019-04-20T21:15:40.581Z,45.40
2019-04-20T21:18:33.787Z,45.70
2019-04-20T21:21:02.046Z,45.90
2019-04-20T21:23:32.871Z,46.10
2019-04-20T21:26:12.823Z,46.50
2019-04-20T21:28:43.729Z,46.40
2019-04-20T21:31:20.417Z,46.30
2019-04-20T21:33:49.077Z,46.40
2019-04-20T21:36:24.612Z,46.30
2019-04-20T21:38:53.943Z,46.50
2019-04-20T21:41:27.486Z,46.60
2019-04-20T21:43:59.968Z,46.60
2019-04-20T21:46:39.898Z,46.70
2019-04-20T21:49:18.204Z,47.00
2019-04-20T21:51:47.559Z,47.60
2019-04-20T21:54:12.114Z,47.10
2019-04-20T21:56:49.841Z,46.10
2019-04-20T21:59:24.146Z,43.00
2019-04-20T22:01:59.843Z,42.20
2019-04-20T22:04:25.579Z,41.60
2019-04-20T22:06:58.225Z,41.90
2019-04-20T22:09:34.446Z,42.50
2019-04-20T22:12:03.440Z,43.10
2019-04-20T22:14:34.026Z,43.40
2019-04-20T22:17:05.596Z,43.60
2019-04-20T22:19:45.840Z,43.90
2019-04-20T22:22:22.387Z,44.10
2019-04-20T22:24:57.843Z,44.10
2019-04-20T22:27:23.695Z,44.30
2019-04-20T22:29:50.325Z,44.70
2019-04-20T22:32:23.532Z,44.80
2019-04-20T22:35:01.374Z,44.80
2019-04-20T22:37:36.645Z,44.80
2019-04-20T22:40:11.812Z,45.00
2019-04-20T22:42:46.549Z,45.40
2019-04-20T22:45:17.029Z,45.60
2019-04-20T22:47:52.972Z,46.40
2019-04-20T22:50:40.022Z,46.70
2019-04-20T22:53:14.155Z,46.80
2019-04-20T22:55:57.733Z,47.30
2019-04-20T22:58:21.131Z,47.20
2019-04-20T23:00:42.143Z,47.40
2019-04-20T23:03:09.115Z,47.20
2019-04-20T23:05:40.652Z,47.40
2019-04-20T23:08:12.938Z,47.80
2019-04-20T23:10:46.853Z,48.00
2019-04-20T23:13:21.160Z,48.10
2019-04-20T23:15:56.476Z,48.30
2019-04-20T23:18:26.297Z,48.30
2019-04-20T23:21:01.336Z,48.40
2019-04-20T23:23:32.207Z,48.30
2019-04-20T23:26:05.164Z,48.50
2019-04-20T23:28:40.078Z,48.60
2019-04-20T23:31:15.215Z,48.50
2019-04-20T23:33:43.619Z,48.60
2019-04-20T23:36:19.271Z,48.80
2019-04-20T23:38:54.160Z,48.80
2019-04-20T23:41:23.835Z,48.70
2019-04-20T23:44:04.185Z,49.20
2019-04-20T23:47:04.584Z,49.40
2019-04-20T23:49:38.133Z,49.30
2019-04-20T23:52:31.656Z,49.50
2019-04-20T23:54:38.639Z,49.50
2019-04-20T23:57:11.318Z,49.30
2019-04-20T23:59:46.289Z,48.50
